Huvudsida
METAR-TAF:

METAR-TAF

Flygplatser :

Tongatapu, Tonga

Fua'amotos internationella flygplats

latitud: 21-14S, longitud: 175-09W, höjd: 38 m

Aktuellt väderrapport

Denna rapport gjordes för 6 timmar och 20 minuter sedan, klockan 15:00 UTC
Stilla vind
Temperatur 25°C
Fuktighet 83%
Tryck 1009 hPa
Sikt 10 km eller mer
Få moln på en höjd av 1900 ft, Högtornande cumulus.

METAR: NFTF 201500Z 00000KT 9999 FEW019TCU 25/22 Q1009

Tid: 10:20 (21:20 UTC)

Väderprognos

Denna rapport gjordes för 10 timmar och 11 minuter sedan, klockan 11:09 UTC
Prognos gäller från 20 kl. 12 UTC till 21 kl. 12 UTC
Vind 5 kt från ost/sydost
Sikt 10 km eller mer
Spridda moln på en höjd av 1800 ft

TAF: NFTF 201109Z 2012/2112 11005KT 9999 SCT018

Aktuella väderrapporter och prognoser från 4000 flygplatser (METAR- och TAF-rapporter).

De tillgängliga stationerna syns som gula och röda prickar på kartan.

För musen över prickarna för att se namnen på stationerna.

Klicka sedan för att få väderrapporter och prognoser.

För att ändra kartan: Klicka på de gröna knapparna med ett svart kors på för att zooma in; den gröna knappen med ett streck på för att zooma ut; eller på de gröna pilarna för angränsande kartor.


METAR-TAF: